Shadow Hills, California
Current Conditions -  °F | °C
As of 3:53 PM on Wednesday 22 Oct 2014 (Local Time) from KBUR Reporting Station
Clear Clear  
Wind Chill: 29°   Ceiling: Unl
Heat Index: 29°   Visibility: 10mi
Dew Point: 11°   Wind: 8mph
Humidity: 33%   Direction: 170°S
Pressure: 29.89"   Gusts: NA
Location:  34.2294°N, 118.357°W
Report Text: KBUR 222253Z 17007KT 10SM CLR 29/11 A2989 RMK AO2 SLP108 T02890111 $
Loading
Personal Weather Stations






























Interactive Weather Map
Tropical Storm Tracking
New forecast layout! Learn more

10-Day Weather Forecast

Advertisements
Track Severe Weather on mobile